UVL weather

El Kharga Airport
New Valley Governorate, Egypt

Public forecast

Using degrees Celsius for public forecast. Weather courtesy of forecast.io.

METAR (pilot weather report)

Closest report is Assiut International Airport, 97.1 nm (179.9 km) NNE. Retrieved 2019/05/24 04:00 UTC (16 minutes ago):

HEAT 240400Z 16008KT CAVOK 30/10 Q1011 NOSIG

TAF (pilot weather forecast)

Forecast is more than 12 hours old.

Closest forecast is Assiut International Airport, 97.1 nm (179.9 km) NNE. Retrieved 2019/05/23 00:00 UTC (1 day ago):

TAF HEAT 232300Z 2400/2506 30014KT CAVOK